Αναφορές Αεροδρομίων

 

KSJC - San Jose, California, USA
Distance from station: ΒΑ 14km
Ενημερώθηκε: 22/06/2024 20:53
Αίθριος
Αίθριος
 Ανεμος από calm
Ανεμος: Απνοια
Θερμοκρασία: 26°C
Σημείο Δρόσου: 13°C
Υγρασία: 45%
Βαρόμετρο: 1009.5 hPa
Clouds: Αίθριος
Visibility: 16 km
2024/06/22 17:53 KSJC 221753Z 00000KT 10SM CLR 26/13 A2981 RMK AO2 SLP092 T02560128 10261 20144 55001
KNUQ - Moffett Nas/Mtn, California, USA
Distance from station: Β 14km
Ενημερώθηκε: 22/06/2024 21:30
Αίθριος
Αίθριος
 Ανεμος από varies
Ανεμος: varies 7 km/h
Θερμοκρασία: 22°C
Σημείο Δρόσου: 15°C
Υγρασία: 65%
Βαρόμετρο: 1009.5 hPa
Clouds: Αίθριος
Visibility: 16 km
2024/06/22 18:30 KNUQ 221830Z AUTO VRB04KT 10SM CLR 22/15 A2981 RMK AO2
 
KPAO - Palo Alto, California, USA
Distance from station: ΒΒΔ 23km
Ενημερώθηκε: 22/06/2024 20:47
Αίθριος
Αίθριος
 Ανεμος από Β
Ανεμος: Β 9 km/h
Θερμοκρασία: 18°C
Σημείο Δρόσου: 14°C
Υγρασία: 78%
Βαρόμετρο: 1009.8 hPa
Clouds: Αίθριος
Visibility: 13 km
2024/06/22 17:47 KPAO 221747Z 36005KT 8SM SKC 18/14 A2982
KRHV - San Jose/Reid, California, USA
Distance from station: ΑΒΑ 19km
Ενημερώθηκε: 22/06/2024 20:47
Αίθριος
Αίθριος
 Ανεμος από calm
Ανεμος: Απνοια
Θερμοκρασία: 25°C
Σημείο Δρόσου: 12°C
Υγρασία: 44%
Βαρόμετρο: 1009.5 hPa
Clouds: Αίθριος
Visibility: 16 km
2024/06/22 17:47 KRHV 221747Z 00000KT 10SM SKC 25/12 A2981
 
KOAK - Oakland, California, USA
Distance from station: ΒΒΔ 50km
Ενημερώθηκε: 22/06/2024 20:53
Few Clouds
Few Clouds
 Ανεμος από Δ
Ανεμος: Δ 13 km/h
Θερμοκρασία: 18°C
Σημείο Δρόσου: 14°C
Υγρασία: 78%
Βαρόμετρο: 1010.2 hPa
Clouds: Few Clouds
Visibility: 16 km
Cloud details: Few Clouds 457 m
2024/06/22 17:53 KOAK 221753Z 27007KT 10SM FEW015 18/14 A2983 RMK AO2 SLP101 T01780139 10178 20128 51005
KSQL - San Carlos Airpo, California, USA
Distance from station: ΒΔ 34km
Ενημερώθηκε: 22/06/2024 20:47
Αίθριος
Αίθριος
 Ανεμος από varies
Ανεμος: varies 9 km/h
Θερμοκρασία: 19°C
Σημείο Δρόσου: 15°C
Υγρασία: 78%
Βαρόμετρο: 1010.2 hPa
Clouds: Αίθριος
Visibility: 16 km
2024/06/22 17:47 KSQL 221747Z VRB05KT 10SM CLR 19/15 A2983
 
KSFO - San Francisco, California, USA
Distance from station: ΒΔ 49km
Ενημερώθηκε: 22/06/2024 20:56
Few Clouds
Few Clouds
 Ανεμος από ΒΒΑ
Ανεμος: ΒΒΑ 9 km/h
Θερμοκρασία: 17°C
Σημείο Δρόσου: 13°C
Υγρασία: 77%
Βαρόμετρο: 1009.8 hPa
Clouds: Few Clouds
Visibility: 16 km
Cloud details: Few Clouds 183 m
2024/06/22 17:56 KSFO 221756Z 02005KT 10SM FEW006 17/13 A2982 RMK AO2 SLP098 T01720133 10172 20100 51004
KE16 - San Martin, California, USA
Distance from station: ΑΝΑ 43km
Ενημερώθηκε: 22/06/2024 21:15
Αίθριος
Αίθριος
 Ανεμος από ΝΝΑ
Ανεμος: ΝΝΑ 7 km/h
Θερμοκρασία: 27°C
Σημείο Δρόσου: 12°C
Υγρασία: 39%
Βαρόμετρο: 1010.2 hPa
Clouds: Αίθριος
Visibility: 16 km
2024/06/22 18:15 KE16 221815Z AUTO 15004KT 10SM CLR 27/12 A2983 RMK AO2
 
KWVI - Watsonville, California, USA
Distance from station: ΝΝΑ 44km
Ενημερώθηκε: 22/06/2024 20:53
Αίθριος
Αίθριος
 Ανεμος από Ν
Ανεμος: Ν 6 km/h
Θερμοκρασία: 22°C
Σημείο Δρόσου: 14°C
Υγρασία: 61%
Βαρόμετρο: 1010.5 hPa
Clouds: Αίθριος
Visibility: 16 km
2024/06/22 17:53 KWVI 221753Z AUTO 19003KT 10SM CLR 22/14 A2984 RMK AO2 SLP103 T02220139 10222 20106 51002
KHAF - Half Moon Bay, California, USA
Distance from station: ΔΒΔ 50km
Ενημερώθηκε: 22/06/2024 01:15
NOT Current
Μερικώς νεφελώδης
Μερικώς νεφελώδης
 Ανεμος από Δ
Ανεμος: Δ 11 km/h
Θερμοκρασία: 13°C
Σημείο Δρόσου: 12°C
Υγρασία: 94%
Βαρόμετρο: 1011.5 hPa
Clouds: Μερικώς νεφελώδης
Visibility: 13 km
Cloud details: Μερικώς νεφελώδης 244 m
2024/06/21 22:15 KHAF 212215Z AUTO 28006KT 8SM SCT008 13/12 A2987 RMK AO2
 
KHWD - Hayward, California, USA
Distance from station: Β 44km
Ενημερώθηκε: 22/06/2024 20:54
Αίθριος
Αίθριος
 Ανεμος από Δ
Ανεμος: Δ 11 km/h
Θερμοκρασία: 21°C
Σημείο Δρόσου: 14°C
Υγρασία: 64%
Βαρόμετρο: 1009.5 hPa
Clouds: Αίθριος
Visibility: 16 km
2024/06/22 17:54 KHWD 221754Z 26006KT 10SM CLR 21/14 A2981 RMK AO2 SLP104 T02060139 10206 20128 51004
KLVK - Livermore, California, USA
Distance from station: ΒΒΑ 51km
Ενημερώθηκε: 22/06/2024 20:53
Αίθριος
Αίθριος
 Ανεμος από ΔΝΔ
Ανεμος: ΔΝΔ 7 km/h
Θερμοκρασία: 28°C
Σημείο Δρόσου: 11°C
Υγρασία: 35%
Βαρόμετρο: 1009.1 hPa
Clouds: Αίθριος
Visibility: 16 km
2024/06/22 17:53 KLVK 221753Z 24004KT 10SM CLR 28/11 A2980 RMK AO2 SLP085 T02780111 10278 20122 58001